Latest Weather Observations for Parafield

IDS60801

Issued at 10:31 am CST Saturday 27 August 2016 (issued every 30 minutes, with the page automatically refreshed every 10 minutes)

About weather observations | Map of weather stations | Latest weather observations for SA | Other Formats
Station Details ID: 023013 Name: PARAFIELD AIRPORT Lat: -34.80 Lon: 138.63 Height: 9.5 m
Data from the previous 72 hours. | See also: Recent months at Parafield
Date/Time
CST
Temp
°C
App
Temp
°C
Dew
Point
°C
Rel
Hum
%
Delta-T
°C
Wind Press
QNH
hPa
Press
MSL
hPa
Rain since
9am
mm
Dir  Spd
km/h
Gust
km/h
Spd
kts
Gust
kts
27/10:30am 15.0 10.2 5.8 54 4.4 N 20 26 11 14 1022.0 1022.0 0.0
27/10:00am 13.6 9.3 5.3 57 3.9 N 17 24 9 13 1022.3 1022.3 0.0
27/09:30am 13.0 8.2 5.4 60 3.5 N 20 28 11 15 1022.7 1022.7 0.0
27/09:00am 12.1 7.5 5.5 64 3.0 N 19 24 10 13 1022.8 1022.8 0.0
27/08:30am 10.9 6.5 4.8 66 2.7 NNE 17 24 9 13 1023.0 1023.0 0.0
27/08:00am 8.9 4.9 4.7 75 1.9 NNE 15 19 8 10 1022.6 1022.6 0.0
27/07:30am 7.8 4.6 4.9 82 1.3 NE 11 13 6 7 1022.6 1022.6 0.0
27/07:00am 5.9 2.0 3.4 84 1.0 NE 13 15 7 8 1022.4 1022.4 0.0
27/06:30am 5.3 1.0 3.2 86 0.9 NE 15 17 8 9 1022.3 1022.3 0.0
27/06:00am 5.1 1.2 3.3 88 0.7 NE 13 15 7 8 1022.2 1022.2 0.0
27/05:30am 4.8 1.6 2.8 87 0.8 NE 9 11 5 6 1022.0 1022.0 0.0
27/05:00am 4.4 0.8 2.8 89 0.6 NE 11 13 6 7 1022.1 1022.1 0.0
27/04:30am 4.3 0.3 2.7 89 0.6 NE 13 15 7 8 1022.2 1022.2 0.0
27/04:00am 4.3 0.7 2.7 89 0.6 NE 11 13 6 7 1022.1 1022.1 0.0
27/03:30am 3.8 0.8 2.2 89 0.6 NNE 7 9 4 5 1022.4 1022.4 0.0
27/03:00am 3.9 0.5 1.9 87 0.8 NE 9 11 5 6 1022.5 1022.5 0.0
27/02:30am 4.6 1.2 2.1 84 1.0 NE 9 11 5 6 1022.9 1022.9 0.0
27/02:00am 4.2 2.2 2.4 88 0.7 ENE 2 6 1 3 1023.0 1023.0 0.0
27/01:30am 4.8 0.7 2.5 85 0.9 NE 13 15 7 8 1023.1 1023.1 0.0
27/01:00am 4.6 0.6 2.8 88 0.7 NE 13 15 7 8 1023.1 1023.1 0.0
27/12:30am 4.9 1.7 2.8 86 0.9 NNE 9 13 5 7 1023.2 1023.2 0.0
27/12:00am 5.1 0.8 3.4 89 0.7 NE 15 15 8 8 1023.3 1023.3 0.0
 
Date/Time
CST
Temp
°C
App
Temp
°C
Dew
Point
°C
Rel
Hum
%
Delta-T
°C
Wind Press
QNH
hPa
Press
MSL
hPa
Rain since
9am
mm
Dir  Spd
km/h
Gust
km/h
Spd
kts
Gust
kts
26/11:30pm 4.5 0.5 2.8 89 0.7 NE 13 15 7 8 1023.6 1023.6 0.0
26/11:00pm 4.6 1.7 2.8 88 0.7 NE 7 9 4 5 1024.0 1024.0 0.0
26/10:30pm 4.3 1.6 2.7 89 0.6 ENE 6 7 3 4 1024.1 1024.1 0.0
26/10:00pm 4.7 1.9 2.9 88 0.7 E 7 9 4 5 1024.3 1024.3 0.0
26/09:30pm 5.1 2.3 3.1 87 0.8 NE 7 11 4 6 1024.3 1024.3 0.0
26/09:00pm 5.7 2.6 3.4 85 1.0 NE 9 11 5 6 1024.3 1024.3 0.0
26/08:30pm 6.0 3.3 3.7 85 1.0 NE 7 7 4 4 1024.3 1024.3 0.0
26/08:00pm 6.8 3.8 4.1 83 1.2 NE 9 11 5 6 1024.3 1024.3 0.0
26/07:30pm 7.5 6.1 3.4 75 1.7 CALM 0 0 0 0 1024.2 1024.2 0.0
26/07:00pm 8.6 6.1 3.8 72 2.1 SW 6 7 3 4 1024.1 1024.1 0.0
26/06:30pm 10.1 8.5 4.7 69 2.4 W 2 7 1 4 1024.0 1024.0 0.0
26/06:00pm 11.5 8.6 4.9 64 3.0 W 9 9 5 5 1023.7 1023.7 0.0
26/05:30pm 11.9 9.6 5.5 65 3.0 W 7 9 4 5 1023.5 1023.5 0.0
26/05:00pm 12.9 11.7 4.6 57 3.8 CALM 0 2 0 1 1023.5 1023.5 0.0
26/04:30pm 12.7 10.4 4.9 59 3.6 SSW 6 7 3 4 1023.1 1023.1 0.0
26/04:00pm 13.2 10.6 4.1 54 4.1 WNW 7 15 4 8 1023.1 1023.1 0.0
26/03:30pm 13.9 10.2 4.2 52 4.4 SW 13 22 7 12 1023.2 1023.2 0.0
26/03:00pm 13.7 10.0 4.6 54 4.2 W 13 19 7 10 1023.4 1023.4 0.0
26/02:30pm 13.3 10.3 3.9 53 4.2 SW 9 19 5 10 1023.6 1023.6 0.0
26/02:00pm 13.1 9.7 4.0 54 4.1 WSW 11 17 6 9 1023.9 1023.9 0.0
26/01:30pm 12.7 8.6 4.2 56 3.8 W 15 20 8 11 1024.0 1024.0 0.0
26/01:00pm 13.2 9.2 4.9 57 3.8 WSW 15 20 8 11 1024.3 1024.3 0.0
26/12:30pm 13.7 10.3 5.8 59 3.7 NW 13 24 7 13 1024.7 1024.7 0.0
26/12:00pm 12.7 9.2 5.4 61 3.4 WNW 13 20 7 11 1025.0 1025.0 0.0
26/11:30am 12.5 10.5 6.3 66 2.9 NW 6 9 3 5 1025.4 1025.4 0.0
26/11:00am 11.8 9.9 6.7 71 2.4 NNW 6 9 3 5 1025.9 1025.9 0.0
26/10:30am 11.5 9.9 7.8 78 1.8 N 6 11 3 6 1025.9 1025.9 0.0
26/10:00am 10.8 9.2 8.6 86 1.1 N 7 11 4 6 1025.7 1025.7 0.0
26/09:30am 9.9 8.2 8.3 90 0.8 NNE 7 9 4 5 1025.9 1025.9 0.0
26/09:00am 9.1 6.6 8.0 93 0.5 NNE 11 13 6 7 1026.0 1026.0 0.0
26/08:30am 8.7 6.3 8.6 99 0.0 NE 11 13 6 7 1025.8 1025.8 0.0
26/08:00am 8.1 6.0 8.1 100 0.0 NE 9 9 5 5 1025.8 1025.8 0.0
26/07:30am 7.3 5.3 7.3 100 0.0 NE 7 9 4 5 1025.3 1025.3 0.0
26/07:00am 6.2 4.6 6.2 100 0.0 E 4 7 2 4 1025.0 1025.0 0.0
26/06:30am 4.6 1.7 4.5 99 0.0 NNE 9 11 5 6 1024.7 1024.7 0.0
26/06:00am 5.1 2.9 5.1 100 0.0 NNE 6 7 3 4 1024.3 1024.3 0.0
26/05:30am 4.8 2.3 4.7 99 0.0 NE 7 9 4 5 1023.9 1023.9 0.0
26/05:00am 5.8 3.1 5.8 100 0.0 N 9 13 5 7 1023.7 1023.7 0.0
26/04:30am 5.4 3.2 5.3 99 0.0 NNE 6 7 3 4 1023.4 1023.4 0.0
26/04:00am 5.5 4.5 5.5 100 0.0 CALM 0 0 0 0 1023.4 1023.4 0.0
26/03:30am 6.0 4.3 6.0 100 0.0 NNW 4 6 2 3 1023.4 1023.4 0.0
26/03:00am 6.6 5.4 6.6 100 0.0 ENE 2 7 1 4 1023.4 1023.4 0.0
26/02:30am 6.3 5.4 6.2 99 0.0 CALM 0 0 0 0 1023.6 1023.6 0.0
26/02:00am 6.1 5.2 6.0 99 0.0 CALM 0 0 0 0 1023.6 1023.6 0.0
26/01:30am 5.8 4.4 5.7 99 0.0 E 2 6 1 3 1023.7 1023.7 0.0
26/01:00am 5.2 2.8 5.1 99 0.0 ENE 7 7 4 4 1023.7 1023.7 0.0
26/12:30am 6.2 4.2 6.1 99 0.0 N 6 7 3 4 1023.6 1023.6 0.0
26/12:00am 5.2 3.3 5.1 99 0.0 NE 4 6 2 3 1023.4 1023.4 0.0
 
Date/Time
CST
Temp
°C
App
Temp
°C
Dew
Point
°C
Rel
Hum
%
Delta-T
°C
Wind Press
QNH
hPa
Press
MSL
hPa
Rain since
9am
mm
Dir  Spd
km/h
Gust
km/h
Spd
kts
Gust
kts
25/11:30pm 5.1 2.6 5.0 99 0.0 ENE 7 9 4 5 1023.4 1023.4 0.0
25/11:00pm 6.5 5.7 6.4 99 0.0 CALM 0 0 0 0 1023.4 1023.4 0.0
25/10:30pm 6.8 4.7 6.7 99 0.0 N 7 11 4 6 1023.5 1023.5 0.0
25/10:00pm 6.7 5.0 6.1 96 0.3 ENE 4 6 2 3 1023.4 1023.4 0.0
25/09:30pm 8.2 7.3 7.8 97 0.2 ESE 2 6 1 3 1023.2 1023.2 0.0
25/09:00pm 8.5 8.0 7.9 96 0.3 CALM 0 2 0 1 1023.0 1023.0 0.0
25/08:30pm 8.7 6.4 7.5 92 0.6 SW 9 9 5 5 1022.8 1022.8 0.0
25/08:00pm 9.9 7.4 8.3 90 0.8 SW 11 13 6 7 1022.6 1022.6 0.0
25/07:30pm 10.8 6.9 8.7 87 1.0 SW 19 28 10 15 1022.4 1022.4 0.0
25/07:00pm 10.0 6.8 6.7 80 1.5 SSW 13 15 7 8 1022.1 1022.1 0.0
25/06:30pm 10.5 7.5 6.1 74 2.0 S 11 13 6 7 1021.8 1021.8 0.0
25/06:00pm 11.7 7.6 6.4 70 2.5 SSW 17 24 9 13 1021.4 1021.5 0.0
25/05:30pm 12.4 8.8 6.9 69 2.6 SSW 15 24 8 13 1021.0 1021.1 0.0
25/05:00pm 13.1 8.0 6.0 62 3.4 SSW 22 30 12 16 1020.7 1020.8 0.0
25/04:30pm 13.7 9.1 6.6 62 3.4 WSW 20 28 11 15 1020.5 1020.6 0.0
25/04:00pm 14.1 9.5 6.7 61 3.6 WSW 20 28 11 15 1020.0 1020.1 0.0
25/03:30pm 14.4 9.9 7.0 61 3.6 WSW 20 30 11 16 1019.9 1020.0 0.0
25/03:00pm 14.5 9.8 6.1 57 4.0 WSW 20 28 11 15 1019.7 1019.8 0.0
25/02:30pm 14.7 10.2 7.0 60 3.8 W 20 30 11 16 1019.8 1019.9 0.0
25/02:00pm 14.7 10.1 6.3 57 4.0 W 20 24 11 13 1019.7 1019.8 0.0
25/01:30pm 14.2 9.7 6.8 61 3.6 W 20 26 11 14 1019.8 1019.9 0.0
25/01:00pm 13.9 9.5 7.2 64 3.3 W 20 26 11 14 1020.1 1020.2 0.0
25/12:30pm 13.9 9.6 7.0 63 3.3 WSW 19 24 10 13 1020.3 1020.4 0.0
25/12:00pm 13.6 9.7 6.9 64 3.2 W 17 22 9 12 1020.6 1020.7 0.0
25/11:30am 14.1 11.5 7.6 65 3.2 W 11 20 6 11 1020.6 1020.7 0.0
25/11:00am 13.3 10.8 5.0 57 3.8 WSW 7 13 4 7 1020.8 1020.9 0.0
25/10:30am 12.7 10.1 6.3 65 3.0 WNW 9 13 5 7 1020.8 1020.9 0.0
25/10:00am 12.0 9.3 5.4 64 3.1 WSW 9 13 5 7 1020.9 1021.0 0.0
25/09:30am 11.6 9.7 5.0 64 3.0 WNW 4 9 2 5 1020.5 1020.6 0.0
25/09:00am 10.0 9.0 5.6 74 2.0 CALM 0 0 0 0 1020.4 1020.5 0.0
25/08:30am 9.0 8.0 5.4 78 1.6 CALM 0 0 0 0 1020.1 1020.2 0.0
25/08:00am 6.7 5.8 6.1 96 0.3 CALM 0 9 0 5 1019.9 1020.0 0.0
25/07:30am 4.4 3.0 3.8 96 0.2 CALM 0 0 0 0 1019.5 1019.6 0.0
25/07:00am 3.3 1.7 2.6 95 0.3 CALM 0 0 0 0 1019.1 1019.2 0.0
25/06:30am 2.7 0.9 1.4 91 0.5 CALM 0 0 0 0 1018.9 1019.0 0.0
25/06:00am 4.4 1.8 3.4 93 0.4 ENE 6 9 3 5 1018.6 1018.7 0.0
25/05:30am 3.4 -0.3 2.5 94 0.4 E 11 13 6 7 1018.1 1018.2 0.0
25/05:00am 3.9 0.7 3.2 95 0.3 NE 9 11 5 6 1017.8 1017.9 0.0
25/04:30am 3.3 0.5 2.0 91 0.5 NE 6 7 3 4 1017.7 1017.8 0.0
25/04:00am 3.6 0.6 2.1 90 0.6 N 7 9 4 5 1017.5 1017.6 0.0
25/03:30am 4.2 2.7 3.0 92 0.5 CALM 0 9 0 5 1017.3 1017.4 0.0
25/03:00am 4.6 3.1 3.1 90 0.6 CALM 0 0 0 0 1017.1 1017.2 0.0
25/02:30am 4.9 2.6 2.8 86 0.9 S 4 6 2 3 1017.0 1017.1 0.0
25/02:00am 6.7 4.8 3.0 77 1.5 WSW 2 6 1 3 1017.0 1017.1 0.0
25/01:30am 8.7 6.9 3.7 71 2.2 SSE 2 11 1 6 1017.0 1017.1 0.0
25/01:00am 7.1 4.6 3.5 78 1.5 W 6 9 3 5 1016.9 1017.0 0.0
25/12:30am 8.1 5.9 3.4 72 2.0 NE 4 11 2 6 1016.9 1017.0 0.0
25/12:00am 8.0 6.2 3.7 74 1.8 WNW 2 7 1 4 1017.0 1017.1 0.0
 
Date/Time
CST
Temp
°C
App
Temp
°C
Dew
Point
°C
Rel
Hum
%
Delta-T
°C
Wind Press
QNH
hPa
Press
MSL
hPa
Rain since
9am
mm
Dir  Spd
km/h
Gust
km/h
Spd
kts
Gust
kts
24/11:30pm 8.5 5.0 3.6 71 2.1 ESE 11 17 6 9 1016.9 1017.0 0.0
24/11:00pm 9.2 4.6 3.8 69 2.4 SE 17 24 9 13 1016.8 1016.9 0.0
24/10:30pm 9.1 3.9 3.3 67 2.5 ESE 20 26 11 14 1016.9 1017.0 0.0
24/10:00pm 9.4 4.6 2.7 63 2.8 ESE 17 24 9 13 1016.9 1017.0 0.0
24/09:30pm 8.7 4.1 1.8 62 2.8 ESE 15 19 8 10 1016.9 1017.0 0.0
24/09:00pm 9.6 4.7 2.0 59 3.2 ESE 17 20 9 11 1016.8 1016.9 0.0
24/08:30pm 9.6 4.9 3.1 64 2.8 ESE 17 24 9 13 1016.5 1016.5 0.0
24/08:00pm 10.2 5.7 4.1 66 2.7 SE 17 24 9 13 1016.3 1016.3 0.0
24/07:30pm 10.1 7.1 5.9 75 1.9 ESE 11 17 6 9 1016.2 1016.2 0.0
24/07:00pm 10.1 6.7 5.9 75 1.9 ESE 13 17 7 9 1016.0 1016.0 0.0
24/06:30pm 10.0 6.9 5.4 73 2.1 ESE 11 13 6 7 1015.7 1015.7 0.0
24/06:00pm 11.1 7.7 5.8 70 2.5 ESE 13 17 7 9 1015.4 1015.4 0.0
24/05:30pm 11.9 8.3 6.6 70 2.5 SE 15 20 8 11 1015.2 1015.2 0.0
24/05:00pm 13.1 8.5 6.5 64 3.2 SE 20 26 11 14 1014.8 1014.8 0.0
24/04:30pm 14.6 11.6 7.6 63 3.5 SSE 13 17 7 9 1014.4 1014.4 0.0
24/04:00pm 15.3 12.3 6.1 54 4.4 SSE 11 17 6 9 1014.2 1014.2 0.0
24/03:30pm 15.5 12.1 9.2 66 3.2 WSW 17 22 9 12 1014.2 1014.2 0.0
24/03:00pm 15.4 12.1 9.5 68 3.0 WSW 17 24 9 13 1014.1 1014.1 0.0
24/02:30pm 15.2 11.4 9.1 67 3.1 W 19 24 10 13 1014.2 1014.2 0.0
24/02:00pm 15.2 11.7 8.7 65 3.3 WSW 17 22 9 12 1014.2 1014.2 0.0
24/01:30pm 15.3 11.3 9.0 66 3.2 WSW 20 26 11 14 1014.5 1014.5 0.0
24/01:00pm 15.6 12.1 8.6 63 3.6 W 17 22 9 12 1014.7 1014.7 0.0
24/12:30pm 15.7 12.2 8.7 63 3.6 W 17 22 9 12 1014.9 1014.9 0.0
24/12:00pm 14.8 11.9 8.1 64 3.3 W 13 17 7 9 1015.2 1015.2 0.0
24/11:30am 15.4 13.7 8.2 62 3.6 WNW 7 15 4 8 1015.4 1015.4 0.0
24/11:00am 14.6 13.1 8.3 66 3.2 W 6 9 3 5 1015.7 1015.7 0.0

Other Formats:

Comma delimited format used in spreadsheet applications
http://www.bom.gov.au/fwo/IDS60801/IDS60801.95677.axf

JavaScript Object Notation format (JSON) in row-major order
http://www.bom.gov.au/fwo/IDS60801/IDS60801.95677.json